Litton, Mississippi
Current Conditions -  °F | °C
As of 7:53 PM on Saturday 20 Dec 2014 (Local Time) from KGLH Reporting Station
Clear Clear  
Wind Chill: 36°   Ceiling: Unl
Heat Index: 41°   Visibility: 8mi
Dew Point: 38°   Wind: 7mph
Humidity: 89%   Direction: 360°N
Pressure: 30.22"   Gusts: NA
Location:  33.5672°N, 90.9043°W
Report Text: KGLH 210153Z AUTO 36006KT 8SM CLR 05/03 A3022 RMK AO2 SLP241 T00500033
Loading
Personal Weather Stations






























Interactive Weather Map New forecast layout! Learn more

10-Day Weather Forecast

Advertisements
Track Severe Weather on mobile